Terminal Aerodrome Forecast
Issued by NWS

Home | Current Version | Previous Version | Text Only | Print | Product List | Glossary On
Versions: 1 2 3 4 5 6 7 8 9 10 11 12 13 14
000
FTUS43 KMQT 272329
TAFSAW
TAF
KSAW 272329Z 2800/2824 01003KT P6SM BKN100
     FM280500 35004KT P6SM BKN015
     FM281000 36005KT 5SM BR BKN015
     FM282000 01007KT P6SM BKN040
     FM282200 01007KT P6SM SCT050=

USA.gov is the U.S. government's official web portal to all federal, state and local government web resources and services.